Time;durP1;ratioP1;P1;durP2;ratioP2;P2;SDS_P1;SDS_P2;PMS_P1;PMS_P2;Temp;Humidity;BMP_temperature;BMP_pressure;BME280_temperature;BME280_humidity;BME280_pressure;Samples;Min_cycle;Max_cycle;Signal;HPM_P1;HPM_P2
2022/01/09 00:00:15;;;;;;;26.80;2.70;;;4.10;99.90;;;;;;4988074;28;20046;-77
2022/01/09 00:02:43;;;;;;;22.08;2.70;;;4.00;99.90;;;;;;4987228;28;20058;-74
2022/01/09 00:05:11;;;;;;;15.98;2.33;;;3.90;99.90;;;;;;4988302;28;20054;-76
2022/01/09 00:07:40;;;;;;;19.90;2.58;;;3.90;99.90;;;;;;4988139;28;20050;-75
2022/01/09 00:10:08;;;;;;;14.20;2.30;;;3.90;99.90;;;;;;4987806;28;20050;-76
2022/01/09 00:12:37;;;;;;;15.88;2.35;;;3.90;99.90;;;;;;4969584;28;20069;-76
2022/01/09 00:15:05;;;;;;;19.13;2.80;;;3.90;99.90;;;;;;4986917;28;20418;-78
2022/01/09 00:17:33;;;;;;;17.40;2.58;;;3.90;99.90;;;;;;4986726;28;20055;-78
2022/01/09 00:20:01;;;;;;;24.98;2.88;;;3.80;99.90;;;;;;4986894;28;20061;-76
2022/01/09 00:22:37;;;;;;;;;;;3.80;99.90;;;;;;4988511;28;20054;-77
2022/01/09 00:25:06;;;;;;;17.20;2.20;;;3.80;99.90;;;;;;4987337;28;19926;-77
2022/01/09 00:27:36;;;;;;;16.02;2.20;;;3.80;99.90;;;;;;4987670;28;20046;-78
2022/01/09 00:30:10;;;;;;;18.98;2.35;;;3.80;99.90;;;;;;4986498;28;20054;-78
2022/01/09 00:32:38;;;;;;;19.63;2.97;;;3.70;99.90;;;;;;4988006;28;20078;-76
2022/01/09 00:35:07;;;;;;;13.70;2.85;;;3.70;99.90;;;;;;4987465;28;20051;-77
2022/01/09 00:37:36;;;;;;;15.68;3.13;;;3.70;99.90;;;;;;4970158;28;20057;-75
2022/01/09 00:40:06;;;;;;;21.08;3.90;;;3.60;99.90;;;;;;4986306;28;20058;-74
2022/01/09 00:42:34;;;;;;;20.48;3.70;;;3.60;99.90;;;;;;4986968;28;20057;-79
2022/01/09 00:45:03;;;;;;;15.48;3.03;;;3.60;99.90;;;;;;4986575;28;20395;-78
2022/01/09 00:47:30;;;;;;;22.42;3.15;;;3.60;99.90;;;;;;4987636;28;20042;-76
2022/01/09 00:49:59;;;;;;;22.90;2.78;;;3.50;99.90;;;;;;4987367;28;20053;-79
2022/01/09 00:52:26;;;;;;;;;;;3.50;99.90;;;;;;4988076;28;20057;-77
2022/01/09 00:54:54;;;;;;;17.98;2.17;;;3.50;99.90;;;;;;4987366;28;19930;-77
2022/01/09 00:57:22;;;;;;;13.27;2.42;;;3.50;99.90;;;;;;4986949;28;20062;-76
2022/01/09 00:59:50;;;;;;;15.32;2.90;;;3.50;99.90;;;;;;4985890;28;20050;-75
2022/01/09 01:02:18;;;;;;;21.75;3.00;;;3.40;99.90;;;;;;4985985;28;20055;-78
2022/01/09 01:04:48;;;;;;;25.95;2.95;;;3.40;99.90;;;;;;4986964;28;20042;-76
2022/01/09 01:07:16;;;;;;;15.23;2.55;;;3.40;99.90;;;;;;4987221;28;20517;-78
2022/01/09 01:09:44;;;;;;;21.60;3.00;;;3.40;99.90;;;;;;4985949;28;20065;-76
2022/01/09 01:12:11;;;;;;;16.45;2.60;;;3.40;99.90;;;;;;4987221;28;20050;-78
2022/01/09 01:14:39;;;;;;;16.77;2.63;;;3.40;99.90;;;;;;4984452;28;20050;-75
2022/01/09 01:17:09;;;;;;;20.20;3.05;;;3.40;99.90;;;;;;4987190;28;20047;-74
2022/01/09 01:19:37;;;;;;;16.33;2.42;;;3.40;99.90;;;;;;4986497;28;20050;-75
2022/01/09 01:22:25;;;;;;;17.17;2.33;;;3.40;99.90;;;;;;4985201;28;20053;-77
2022/01/09 01:24:56;;;;;;;18.55;2.47;;;3.40;99.90;;;;;;4987071;28;20483;-75
2022/01/09 01:27:24;;;;;;;17.67;2.58;;;3.40;99.90;;;;;;4986900;28;20054;-71
2022/01/09 01:29:52;;;;;;;;;;;3.40;99.90;;;;;;4987353;28;20058;-73
2022/01/09 01:32:19;;;;;;;22.52;2.78;;;3.40;99.90;;;;;;4985470;28;20612;-74
2022/01/09 01:34:47;;;;;;;20.95;3.13;;;3.40;99.90;;;;;;4985731;28;20046;-74
2022/01/09 01:37:15;;;;;;;17.52;3.08;;;3.40;99.90;;;;;;4986652;28;20529;-76
2022/01/09 01:39:42;;;;;;;11.50;2.10;;;3.50;99.90;;;;;;4985129;28;20069;-79
2022/01/09 01:42:10;;;;;;;20.05;2.72;;;3.40;99.90;;;;;;4986367;28;20038;-76
2022/01/09 01:44:49;;;;;;;23.85;2.75;;;3.30;99.90;;;;;;4968856;28;20077;-75
2022/01/09 01:47:20;;;;;;;13.32;2.20;;;3.40;99.90;;;;;;4985440;28;20047;-75
2022/01/09 01:49:49;;;;;;;17.50;2.85;;;3.40;99.90;;;;;;4986367;28;20065;-74
2022/01/09 01:52:18;;;;;;;;;;;3.50;99.90;;;;;;4986640;28;20054;-73
2022/01/09 01:54:45;;;;;;;23.33;2.45;;;3.40;99.90;;;;;;4968620;28;19921;-75
2022/01/09 01:57:13;;;;;;;18.48;2.72;;;3.40;99.90;;;;;;4986355;28;20050;-74
2022/01/09 01:59:41;;;;;;;28.50;3.03;;;3.40;99.90;;;;;;4983833;28;20046;-76
2022/01/09 02:02:09;;;;;;;15.13;2.53;;;3.40;99.90;;;;;;4985709;28;20049;-74
2022/01/09 02:04:37;;;;;;;20.08;2.28;;;3.40;99.90;;;;;;4984545;28;20509;-74
2022/01/09 02:07:07;;;;;;;21.13;2.25;;;3.30;99.90;;;;;;4981745;28;20478;-76
2022/01/09 02:09:34;;;;;;;26.10;3.00;;;3.40;99.90;;;;;;4984354;28;20065;-76
2022/01/09 02:12:03;;;;;;;17.17;2.47;;;3.40;99.90;;;;;;4984849;28;20039;-78
2022/01/09 02:14:37;;;;;;;20.70;2.22;;;3.40;99.90;;;;;;4986611;28;20046;-77
2022/01/09 02:17:06;;;;;;;21.15;2.72;;;3.40;99.90;;;;;;4985116;28;20042;-75
2022/01/09 02:19:33;;;;;;;19.95;2.38;;;3.40;99.90;;;;;;4984377;28;20050;-74
2022/01/09 02:22:01;;;;;;;17.58;2.30;;;3.40;99.90;;;;;;4986376;28;20049;-75
2022/01/09 02:24:29;;;;;;;15.18;2.33;;;3.40;99.90;;;;;;4985226;28;20069;-76
2022/01/09 02:26:56;;;;;;;21.95;2.28;;;3.40;99.90;;;;;;4968980;28;20043;-76
2022/01/09 02:29:24;;;;;;;17.67;2.35;;;3.30;99.90;;;;;;4986166;28;20055;-73
2022/01/09 02:31:51;;;;;;;20.58;2.45;;;3.40;99.90;;;;;;4983584;28;20590;-77
2022/01/09 02:34:19;;;;;;;27.90;3.33;;;3.30;99.90;;;;;;4985958;28;20799;-78
2022/01/09 02:36:47;;;;;;;20.08;2.30;;;3.20;99.90;;;;;;4985975;28;20047;-73
2022/01/09 02:39:14;;;;;;;14.50;1.88;;;3.20;99.90;;;;;;4986125;28;20050;-74
2022/01/09 02:41:43;;;;;;;18.70;2.65;;;3.20;99.90;;;;;;4984582;28;20046;-74
2022/01/09 02:44:10;;;;;;;22.08;2.53;;;3.20;99.90;;;;;;4985029;28;20511;-71
2022/01/09 02:49:27;;;;;;;17.10;2.53;;;3.20;99.90;;;;;;4985259;28;20061;-73
2022/01/09 02:51:54;;;;;;;26.25;3.20;;;3.20;99.90;;;;;;4969064;28;20050;-72
2022/01/09 02:57:09;;;;;;;25.20;2.40;;;3.10;99.90;;;;;;4986475;28;20153;-73
2022/01/09 02:59:36;;;;;;;23.67;2.30;;;3.20;99.90;;;;;;4984632;28;20034;-73
2022/01/09 03:02:04;;;;;;;25.48;2.85;;;3.20;99.90;;;;;;4986646;28;20058;-71
2022/01/09 03:04:32;;;;;;;;;;;3.20;99.90;;;;;;4987729;28;20563;-72
2022/01/09 03:06:59;;;;;;;23.90;2.83;;;3.20;99.90;;;;;;4978429;28;20402;-75
2022/01/09 03:09:27;;;;;;;17.30;2.40;;;3.20;99.90;;;;;;4984195;28;20802;-75
2022/01/09 03:11:55;;;;;;;16.15;2.03;;;3.20;99.90;;;;;;4970686;28;20461;-74
2022/01/09 03:14:22;;;;;;;24.75;2.90;;;3.20;99.90;;;;;;4985345;28;20380;-74
2022/01/09 03:16:50;;;;;;;16.23;2.58;;;3.20;99.90;;;;;;4985515;28;20488;-72
2022/01/09 03:19:18;;;;;;;25.77;2.92;;;3.30;99.90;;;;;;4985277;28;20059;-73
2022/01/09 03:21:45;;;;;;;23.05;2.55;;;3.30;99.90;;;;;;4983618;28;20045;-72
2022/01/09 03:24:13;;;;;;;14.55;2.40;;;3.30;99.90;;;;;;4989735;28;20054;-76
2022/01/09 03:26:41;;;;;;;23.63;2.50;;;3.30;99.90;;;;;;4989901;28;20049;-75
2022/01/09 03:29:08;;;;;;;17.58;2.58;;;3.30;99.90;;;;;;4989967;28;20043;-76
2022/01/09 03:31:36;;;;;;;29.60;3.20;;;3.30;99.90;;;;;;4988390;28;20046;-77
2022/01/09 03:34:04;;;;;;;18.17;2.67;;;3.30;99.90;;;;;;4989653;28;20046;-78
2022/01/09 03:36:31;;;;;;;20.33;2.50;;;3.30;99.90;;;;;;4988347;28;20057;-76
2022/01/09 03:38:59;;;;;;;14.85;2.25;;;3.30;99.90;;;;;;4989305;28;20050;-77
2022/01/09 03:41:27;;;;;;;20.80;2.88;;;3.30;99.90;;;;;;4989025;28;20054;-75
2022/01/09 03:43:54;;;;;;;22.67;2.50;;;3.30;99.90;;;;;;4989548;28;20403;-76
2022/01/09 03:46:22;;;;;;;18.98;2.67;;;3.20;99.90;;;;;;4988535;28;20042;-73
2022/01/09 03:48:50;;;;;;;24.25;2.83;;;3.30;99.90;;;;;;4971870;28;20500;-74
2022/01/09 03:51:17;;;;;;;19.85;2.50;;;3.30;99.90;;;;;;4989233;28;20054;-72
2022/01/09 03:53:45;;;;;;;21.50;2.67;;;3.30;99.90;;;;;;4987334;28;20482;-74
2022/01/09 03:56:13;;;;;;;20.30;2.75;;;3.30;99.90;;;;;;5002879;28;20054;-75
2022/01/09 03:58:40;;;;;;;19.38;2.35;;;3.30;99.90;;;;;;4989143;28;20498;-72
2022/01/09 04:01:08;;;;;;;19.67;2.78;;;3.30;99.90;;;;;;4987621;28;20062;-74
2022/01/09 04:03:36;;;;;;;18.75;2.33;;;3.30;99.90;;;;;;4988778;28;20523;-74
2022/01/09 04:06:04;;;;;;;19.13;2.60;;;3.40;99.90;;;;;;4994597;28;20400;-71
2022/01/09 04:08:34;;;;;;;25.55;2.65;;;3.30;99.90;;;;;;4989047;28;20391;-72
2022/01/09 04:11:03;;;;;;;17.45;2.10;;;3.40;99.90;;;;;;4987654;28;20042;-73
2022/01/09 04:13:35;;;;;;;19.92;2.70;;;3.40;99.90;;;;;;5003785;28;20050;-74
2022/01/09 04:16:04;;;;;;;18.45;2.47;;;3.30;99.90;;;;;;4985829;28;20395;-75
2022/01/09 04:18:32;;;;;;;22.10;3.00;;;3.30;99.90;;;;;;4987836;28;20529;-72
2022/01/09 04:20:59;;;;;;;19.17;2.58;;;3.30;99.90;;;;;;4988157;28;20590;-72
2022/01/09 04:23:27;;;;;;;15.43;2.75;;;3.30;99.90;;;;;;4988832;28;20399;-73
2022/01/09 04:25:55;;;;;;;24.38;2.80;;;3.30;99.90;;;;;;4987393;28;20057;-76
2022/01/09 04:28:23;;;;;;;19.50;2.40;;;3.30;99.90;;;;;;4987059;28;20061;-74
2022/01/09 04:30:51;;;;;;;15.40;2.58;;;3.30;99.90;;;;;;4971074;28;20054;-72
2022/01/09 04:33:19;;;;;;;16.95;2.83;;;3.30;99.90;;;;;;4970433;28;20055;-71
2022/01/09 04:35:52;;;;;;;23.17;3.33;;;3.20;99.90;;;;;;4987669;28;20050;-74
2022/01/09 04:38:19;;;;;;;16.20;2.38;;;3.20;99.90;;;;;;4995268;28;20057;-79
2022/01/09 04:40:47;;;;;;;17.25;2.70;;;3.20;99.90;;;;;;5022798;28;20060;-79
2022/01/09 04:43:16;;;;;;;21.73;2.80;;;3.20;99.90;;;;;;5007832;28;20053;-79
2022/01/09 04:45:43;;;;;;;21.35;2.50;;;3.10;99.90;;;;;;5006704;28;20049;-79
2022/01/09 04:48:13;;;;;;;14.85;2.28;;;3.10;99.90;;;;;;5006980;28;20479;-79
2022/01/09 04:50:43;;;;;;;20.90;2.88;;;3.10;99.90;;;;;;5006473;28;20069;-79
2022/01/09 04:53:11;;;;;;;21.65;2.78;;;3.10;99.90;;;;;;5008287;28;20129;-78
2022/01/09 04:55:49;;;;;;;24.05;2.55;;;3.10;99.90;;;;;;5017838;28;20069;-78
2022/01/09 04:58:18;;;;;;;19.02;2.67;;;3.10;99.90;;;;;;4988169;28;20047;-78
2022/01/09 05:00:45;;;;;;;19.92;2.70;;;3.10;99.90;;;;;;4987688;28;20055;-74
2022/01/09 05:03:15;;;;;;;22.52;3.30;;;3.10;99.90;;;;;;4987392;28;20054;-76
2022/01/09 05:05:43;;;;;;;22.77;2.50;;;3.10;99.90;;;;;;4987593;28;20054;-79
2022/01/09 05:08:10;;;;;;;24.27;3.05;;;3.10;99.90;;;;;;4987708;28;20046;-78
2022/01/09 05:10:38;;;;;;;21.05;3.38;;;3.10;99.90;;;;;;4986822;28;20069;-75
2022/01/09 05:13:06;;;;;;;19.55;2.63;;;3.20;99.90;;;;;;4986522;28;20043;-80
2022/01/09 05:15:34;;;;;;;18.30;2.38;;;3.20;99.90;;;;;;4988116;28;20062;-74
2022/01/09 05:18:11;;;;;;;22.60;2.50;;;3.20;99.90;;;;;;4987776;28;20487;-74
2022/01/09 05:20:39;;;;;;;24.50;2.85;;;3.20;99.90;;;;;;4985839;28;20521;-75
2022/01/09 05:23:07;;;;;;;17.83;2.67;;;3.20;99.90;;;;;;4986374;28;20046;-74
2022/01/09 05:25:34;;;;;;;16.42;2.20;;;3.20;99.90;;;;;;4987705;28;20491;-77
2022/01/09 05:28:02;;;;;;;22.50;3.13;;;3.20;99.90;;;;;;4986077;28;20047;-74
2022/01/09 05:30:30;;;;;;;24.10;3.15;;;3.30;99.90;;;;;;4987637;28;20038;-74
2022/01/09 05:32:58;;;;;;;18.50;2.72;;;3.30;99.90;;;;;;4986129;28;20042;-74
2022/01/09 05:35:26;;;;;;;16.63;2.63;;;3.30;99.90;;;;;;4984204;28;20558;-74
2022/01/09 05:37:54;;;;;;;20.40;2.47;;;3.30;99.90;;;;;;4972302;28;20491;-73
2022/01/09 05:40:21;;;;;;;25.73;2.72;;;3.30;99.90;;;;;;4967904;28;20046;-72
2022/01/09 05:42:49;;;;;;;18.95;2.28;;;3.30;99.90;;;;;;4985131;28;20057;-75
2022/01/09 05:45:17;;;;;;;19.25;2.80;;;3.30;99.90;;;;;;4986020;28;20050;-73
2022/01/09 05:47:46;;;;;;;20.70;2.47;;;3.30;99.90;;;;;;4986586;28;20057;-72
2022/01/09 05:50:14;;;;;;;24.52;2.90;;;3.30;99.90;;;;;;4984850;28;20073;-75
2022/01/09 05:52:41;;;;;;;15.57;2.63;;;3.30;99.90;;;;;;4968922;28;20055;-73
2022/01/09 05:55:09;;;;;;;22.30;3.00;;;3.20;99.90;;;;;;4984973;28;20050;-73
2022/01/09 05:57:37;;;;;;;16.00;2.38;;;3.30;99.90;;;;;;4968831;28;20425;-74
2022/01/09 06:00:05;;;;;;;26.40;3.00;;;3.30;99.90;;;;;;4984881;28;20062;-73
2022/01/09 06:02:33;;;;;;;18.45;2.55;;;3.30;99.90;;;;;;4986562;28;20076;-75
2022/01/09 06:05:01;;;;;;;19.02;2.38;;;3.30;99.90;;;;;;4985025;28;20047;-77
2022/01/09 06:07:29;;;;;;;21.70;2.70;;;3.30;99.90;;;;;;4985119;28;20759;-73
2022/01/09 06:09:56;;;;;;;24.33;2.90;;;3.30;99.90;;;;;;4986341;28;20034;-73
2022/01/09 06:12:24;;;;;;;20.23;2.95;;;3.30;99.90;;;;;;4985018;28;20054;-75
2022/01/09 06:14:52;;;;;;;17.42;1.65;;;3.40;99.90;;;;;;4985001;28;20101;-73
2022/01/09 06:17:19;;;;;;;14.32;2.17;;;3.40;99.90;;;;;;4985756;28;20062;-76
2022/01/09 06:19:47;;;;;;;19.17;2.60;;;3.40;99.90;;;;;;4986485;28;20065;-73
2022/01/09 06:22:18;;;;;;;19.38;2.92;;;3.40;99.90;;;;;;4985077;28;20138;-75
2022/01/09 06:24:55;;;;;;;16.40;2.72;;;3.40;99.90;;;;;;4985087;28;20047;-73
2022/01/09 06:27:22;;;;;;;17.40;2.90;;;3.40;99.90;;;;;;4985898;28;20447;-72
2022/01/09 06:29:50;;;;;;;22.15;2.70;;;3.40;99.90;;;;;;4986179;28;20494;-77
2022/01/09 06:32:17;;;;;;;23.10;2.60;;;3.30;99.90;;;;;;4984887;28;20050;-75
2022/01/09 06:34:45;;;;;;;16.83;2.80;;;3.30;99.90;;;;;;4986360;28;20059;-72
2022/01/09 06:37:14;;;;;;;14.98;2.80;;;3.30;99.90;;;;;;4985108;28;20065;-73
2022/01/09 06:39:43;;;;;;;16.35;2.25;;;3.30;99.90;;;;;;4969726;28;20049;-73
2022/01/09 06:42:11;;;;;;;18.67;2.55;;;3.30;99.90;;;;;;4989731;28;20454;-75
2022/01/09 06:44:39;;;;;;;17.65;2.20;;;3.30;99.90;;;;;;4989592;28;20046;-74
2022/01/09 06:47:08;;;;;;;21.83;3.13;;;3.30;99.90;;;;;;4988536;28;20058;-74
2022/01/09 06:49:35;;;;;;;20.73;3.17;;;3.30;99.90;;;;;;4990058;28;20046;-72
2022/01/09 06:52:04;;;;;;;19.25;2.60;;;3.30;99.90;;;;;;4988118;28;20057;-75
2022/01/09 06:54:32;;;;;;;22.88;2.50;;;3.30;99.90;;;;;;4990012;28;20049;-72
2022/01/09 06:56:59;;;;;;;17.63;3.10;;;3.30;99.90;;;;;;4988365;28;20050;-75
2022/01/09 06:59:27;;;;;;;18.63;2.67;;;3.30;99.90;;;;;;4989959;28;20066;-72
2022/01/09 07:01:55;;;;;;;25.08;2.80;;;3.30;99.90;;;;;;4989174;28;20069;-73
2022/01/09 07:04:23;;;;;;;23.55;2.70;;;3.30;99.90;;;;;;4989200;28;20053;-73
2022/01/09 07:06:50;;;;;;;24.25;3.50;;;3.40;99.90;;;;;;4989149;28;20050;-74
2022/01/09 07:09:18;;;;;;;22.42;2.85;;;3.30;99.90;;;;;;4984339;28;20065;-74
2022/01/09 07:11:46;;;;;;;21.27;2.78;;;3.30;99.90;;;;;;4970158;28;20051;-73
2022/01/09 07:14:14;;;;;;;23.17;2.80;;;3.30;99.90;;;;;;4970107;28;20054;-75
2022/01/09 07:16:41;;;;;;;22.00;3.03;;;3.30;99.90;;;;;;4968581;28;20047;-73
2022/01/09 07:19:09;;;;;;;18.75;2.45;;;3.30;99.90;;;;;;4968517;28;20498;-75
2022/01/09 07:21:37;;;;;;;20.48;2.83;;;3.30;99.90;;;;;;4969572;28;20062;-77
2022/01/09 07:24:05;;;;;;;19.67;2.25;;;3.20;99.90;;;;;;4968511;28;20070;-73
2022/01/09 07:26:32;;;;;;;23.77;2.78;;;3.20;99.90;;;;;;4969797;28;20053;-74
2022/01/09 07:29:00;;;;;;;22.35;2.83;;;3.20;99.90;;;;;;4968665;28;20058;-72
2022/01/09 07:31:27;;;;;;;25.75;2.75;;;3.30;99.90;;;;;;4968511;28;20525;-78
2022/01/09 07:33:56;;;;;;;24.65;2.90;;;3.30;99.90;;;;;;4995662;28;20056;-74
2022/01/09 07:36:24;;;;;;;16.58;2.75;;;3.20;99.90;;;;;;4991211;28;20050;-76
2022/01/09 07:38:51;;;;;;;21.25;3.33;;;3.20;99.90;;;;;;4966955;28;20039;-72
2022/01/09 07:41:24;;;;;;;18.13;2.95;;;3.20;99.90;;;;;;4984509;28;20537;-77
2022/01/09 07:43:54;;;;;;;26.02;2.95;;;3.10;99.90;;;;;;5001489;28;20042;-78
2022/01/09 07:46:22;;;;;;;18.15;2.75;;;3.10;99.90;;;;;;4999656;28;20050;-76
2022/01/09 07:48:50;;;;;;;23.63;2.63;;;3.10;99.90;;;;;;5000091;28;20824;-76
2022/01/09 07:51:17;;;;;;;15.32;2.63;;;3.10;99.90;;;;;;5007873;28;20057;-77
2022/01/09 07:53:45;;;;;;;19.98;2.80;;;3.10;99.90;;;;;;5005911;28;20054;-74
2022/01/09 07:56:13;;;;;;;23.65;2.97;;;3.10;99.90;;;;;;5006456;28;20080;-73
2022/01/09 07:58:41;;;;;;;17.65;2.28;;;3.10;99.90;;;;;;5006301;28;20053;-75
2022/01/09 08:01:08;;;;;;;16.05;2.70;;;3.10;99.90;;;;;;5006409;28;20046;-74
2022/01/09 08:03:36;;;;;;;19.90;2.47;;;3.10;99.90;;;;;;5006274;28;20046;-73
2022/01/09 08:06:04;;;;;;;;;;;3.10;99.90;;;;;;4991466;28;20053;-72
2022/01/09 08:08:31;;;;;;;21.77;2.75;;;3.10;99.90;;;;;;4987164;28;19922;-73
2022/01/09 08:10:59;;;;;;;20.65;3.15;;;3.10;99.90;;;;;;4981919;28;20055;-76
2022/01/09 08:13:27;;;;;;;24.88;2.90;;;3.10;99.90;;;;;;4970450;28;20058;-75
2022/01/09 08:15:54;;;;;;;23.27;2.63;;;3.10;99.90;;;;;;4980840;28;20053;-72
2022/01/09 08:18:23;;;;;;;20.30;2.67;;;3.10;99.90;;;;;;4985781;28;20483;-73
2022/01/09 08:20:51;;;;;;;21.85;2.90;;;3.10;99.90;;;;;;4986355;28;20066;-73
2022/01/09 08:23:19;;;;;;;16.75;2.47;;;3.10;99.90;;;;;;4985338;28;20406;-73
2022/01/09 08:25:47;;;;;;;25.15;3.17;;;3.10;99.90;;;;;;4987174;28;20050;-72
2022/01/09 08:28:14;;;;;;;18.13;2.60;;;3.10;99.90;;;;;;5003840;28;20054;-75
2022/01/09 08:30:42;;;;;;;20.70;2.42;;;3.10;99.90;;;;;;4989825;28;20038;-71
2022/01/09 08:33:10;;;;;;;10.82;1.70;;;3.10;99.90;;;;;;4986482;28;20406;-78
2022/01/09 08:35:38;;;;;;;17.02;2.38;;;3.10;99.90;;;;;;4986189;28;20053;-71
2022/01/09 08:38:05;;;;;;;29.80;3.15;;;3.20;99.90;;;;;;4987963;28;20069;-76
2022/01/09 08:40:33;;;;;;;27.58;3.05;;;3.20;99.90;;;;;;4986191;28;20046;-75
2022/01/09 08:43:01;;;;;;;21.23;2.60;;;3.20;99.90;;;;;;4985981;28;20061;-79
2022/01/09 08:45:29;;;;;;;20.52;2.85;;;3.30;99.90;;;;;;4987126;28;20057;-76
2022/01/09 08:47:57;;;;;;;24.17;2.65;;;3.40;99.90;;;;;;4986130;28;20054;-73
2022/01/09 08:50:24;;;;;;;24.60;2.58;;;3.40;99.90;;;;;;4986102;28;20042;-76
2022/01/09 08:52:52;;;;;;;13.88;2.47;;;3.50;99.90;;;;;;4986582;28;20419;-77
2022/01/09 08:55:24;;;;;;;16.95;2.63;;;3.50;99.90;;;;;;4986006;28;20061;-78
2022/01/09 08:57:52;;;;;;;28.63;3.08;;;3.50;99.90;;;;;;4993406;28;20057;-72
2022/01/09 09:00:20;;;;;;;17.35;2.67;;;3.60;99.90;;;;;;5008838;28;20058;-72
2022/01/09 09:02:48;;;;;;;19.48;2.22;;;3.70;99.90;;;;;;5006259;28;20061;-75
2022/01/09 09:05:16;;;;;;;18.38;2.70;;;3.70;99.90;;;;;;4999550;28;20042;-76
2022/01/09 09:07:44;;;;;;;;;;;3.80;99.90;;;;;;4985827;28;20053;-75
2022/01/09 09:10:13;;;;;;;19.77;2.55;;;3.80;99.90;;;;;;5018763;28;19932;-78
2022/01/09 09:12:40;;;;;;;18.30;2.65;;;3.80;99.90;;;;;;4988347;28;20050;-79
2022/01/09 09:15:09;;;;;;;24.17;2.42;;;3.80;99.90;;;;;;4986747;28;20057;-81
2022/01/09 09:17:36;;;;;;;;;;;3.80;99.90;;;;;;4981161;28;20053;-80
2022/01/09 09:20:05;;;;;;;14.43;2.63;;;3.90;99.90;;;;;;4966974;28;19926;-79
2022/01/09 09:22:34;;;;;;;27.50;3.00;;;3.90;99.90;;;;;;4981789;28;20059;-79
2022/01/09 09:25:02;;;;;;;24.30;2.90;;;4.00;99.90;;;;;;4966246;28;20058;-79
2022/01/09 09:27:32;;;;;;;14.10;2.28;;;4.10;99.90;;;;;;4982163;28;20054;-79
2022/01/09 09:30:02;;;;;;;24.73;3.17;;;4.10;99.90;;;;;;4982463;28;20723;-78
2022/01/09 09:32:31;;;;;;;21.25;2.55;;;4.20;99.90;;;;;;4981940;28;20046;-76
2022/01/09 09:34:59;;;;;;;16.88;3.00;;;4.30;99.90;;;;;;4970955;28;20073;-78
2022/01/09 09:37:32;;;;;;;25.67;2.60;;;4.30;99.90;;;;;;4985724;28;20434;-73
2022/01/09 09:40:00;;;;;;;18.65;2.60;;;4.40;99.90;;;;;;4986640;28;20054;-75
2022/01/09 09:42:28;;;;;;;25.83;3.03;;;4.40;99.90;;;;;;4984863;28;20058;-78
2022/01/09 09:45:00;;;;;;;14.77;2.42;;;4.50;99.90;;;;;;4981424;28;20055;-75
2022/01/09 09:47:29;;;;;;;19.30;2.95;;;4.60;99.90;;;;;;4965888;28;20054;-76
2022/01/09 09:49:57;;;;;;;19.13;2.60;;;4.60;99.90;;;;;;4974203;28;20053;-75
2022/01/09 09:52:25;;;;;;;14.82;2.13;;;4.60;99.90;;;;;;4985181;28;20057;-75
2022/01/09 09:54:54;;;;;;;19.67;2.83;;;4.70;99.90;;;;;;4986414;28;20093;-75
2022/01/09 09:57:23;;;;;;;24.42;3.03;;;4.80;99.90;;;;;;4986493;28;20043;-74
2022/01/09 10:00:05;;;;;;;21.27;2.53;;;4.80;99.90;;;;;;4984658;28;20050;-77
2022/01/09 10:02:47;;;;;;;20.73;2.63;;;4.90;99.90;;;;;;4986131;28;20105;-72
2022/01/09 10:05:18;;;;;;;18.13;2.78;;;4.90;99.90;;;;;;4986722;28;20050;-78
2022/01/09 10:07:54;;;;;;;21.15;2.58;;;5.00;99.90;;;;;;4985999;28;20054;-77
2022/01/09 10:10:30;;;;;;;19.35;2.95;;;5.10;99.90;;;;;;4984815;28;20046;-75
2022/01/09 10:13:17;;;;;;;19.67;2.67;;;5.20;99.90;;;;;;5003054;28;20048;-72
2022/01/09 10:15:47;;;;;;;18.50;2.63;;;5.30;99.90;;;;;;4993294;28;20065;-72
2022/01/09 10:18:39;;;;;;;17.85;2.33;;;5.40;99.90;;;;;;5006694;28;20057;-72
2022/01/09 10:21:14;;;;;;;21.10;2.60;;;5.70;99.90;;;;;;5007254;28;20046;-73
2022/01/09 10:23:57;;;;;;;21.25;2.90;;;6.20;99.90;;;;;;5009527;28;20065;-75
2022/01/09 10:26:24;;;;;;;18.95;2.92;;;6.80;99.90;;;;;;5007314;28;20042;-75
2022/01/09 10:28:52;;;;;;;18.95;2.60;;;7.30;99.90;;;;;;5007703;28;20045;-76
2022/01/09 10:31:20;;;;;;;16.35;2.40;;;8.00;99.90;;;;;;4989964;28;20041;-74
2022/01/09 10:34:06;;;;;;;15.80;2.90;;;8.30;99.90;;;;;;5005380;28;20057;-73
2022/01/09 10:36:47;;;;;;;20.95;2.88;;;8.80;99.90;;;;;;5002273;28;20642;-76
2022/01/09 10:39:17;;;;;;;17.35;2.65;;;9.30;99.90;;;;;;5005102;28;20061;-75
2022/01/09 10:41:58;;;;;;;12.95;2.75;;;9.70;99.90;;;;;;4998367;28;20057;-76
2022/01/09 10:44:31;;;;;;;12.88;2.63;;;10.00;99.90;;;;;;5003511;28;20049;-76
2022/01/09 10:47:12;;;;;;;15.55;3.25;;;10.30;99.90;;;;;;5004931;28;20130;-79
2022/01/09 10:49:49;;;;;;;13.00;2.75;;;10.50;99.90;;;;;;4988090;28;20053;-80
2022/01/09 10:52:25;;;;;;;14.05;2.97;;;10.80;99.90;;;;;;5002821;28;20042;-74
2022/01/09 10:54:56;;;;;;;14.45;3.00;;;11.10;99.90;;;;;;5006221;28;20058;-76
2022/01/09 10:57:27;;;;;;;21.30;3.00;;;11.30;99.90;;;;;;5006412;28;20069;-77
2022/01/09 11:00:06;;;;;;;16.90;2.90;;;11.40;99.90;;;;;;4985516;28;20065;-77
2022/01/09 11:02:34;;;;;;;15.73;2.85;;;11.50;99.90;;;;;;5003361;28;20050;-78
2022/01/09 11:05:02;;;;;;;;;;;11.60;99.90;;;;;;5004774;28;20054;-75
2022/01/09 11:07:30;;;;;;;15.32;2.95;;;11.70;99.90;;;;;;4991450;28;19929;-75
2022/01/09 11:09:59;;;;;;;10.10;2.35;;;11.70;99.90;;;;;;5007028;28;20054;-77
2022/01/09 11:12:35;;;;;;;19.20;2.95;;;11.80;99.90;;;;;;4995186;28;20065;-81
2022/01/09 11:15:04;;;;;;;14.85;2.85;;;12.00;99.90;;;;;;4995846;28;20407;-74
2022/01/09 11:17:31;;;;;;;15.32;2.88;;;12.30;99.90;;;;;;5000397;28;20061;-73
2022/01/09 11:20:00;;;;;;;13.02;2.53;;;12.40;99.90;;;;;;5007297;28;20056;-72
2022/01/09 11:22:28;;;;;;;14.13;2.65;;;12.60;99.90;;;;;;4998221;28;20065;-76
2022/01/09 11:25:11;;;;;;;;;;;12.70;99.90;;;;;;5009729;28;20065;-78
2022/01/09 11:28:03;;;;;;;11.32;2.40;;;12.90;99.90;;;;;;5002919;28;19970;-76
2022/01/09 11:31:08;;;;;;;12.07;2.88;;;13.20;99.90;;;;;;4977315;28;20503;-74
2022/01/09 11:34:18;;;;;;;16.42;3.13;;;13.70;99.90;;;;;;5001243;28;20046;-76
2022/01/09 11:37:34;;;;;;;13.88;2.92;;;13.90;99.90;;;;;;5001731;28;20042;-78
2022/01/09 11:40:04;;;;;;;11.65;2.40;;;14.00;99.90;;;;;;4984929;28;20054;-72
2022/01/09 11:42:32;;;;;;;10.48;2.53;;;13.90;99.90;;;;;;4954791;28;20058;-75
2022/01/09 11:45:00;;;;;;;16.35;3.10;;;13.90;99.90;;;;;;4968972;28;20047;-73
2022/01/09 11:47:48;;;;;;;13.93;2.88;;;13.90;99.90;;;;;;4977582;28;20055;-75
2022/01/09 11:50:18;;;;;;;12.10;2.53;;;14.10;98.30;;;;;;4964049;28;20051;-77
2022/01/09 11:53:00;;;;;;;14.55;3.03;;;13.90;99.00;;;;;;5000326;28;20058;-74
2022/01/09 11:55:41;;;;;;;15.32;3.00;;;13.80;98.20;;;;;;4989464;28;20061;-74
2022/01/09 11:58:11;;;;;;;12.90;3.10;;;13.70;99.00;;;;;;5010509;28;20065;-72
2022/01/09 12:00:42;;;;;;;13.50;3.13;;;13.70;99.90;;;;;;5004702;28;20156;-76
2022/01/09 12:03:28;;;;;;;14.68;2.90;;;13.80;99.90;;;;;;5004714;28;20472;-78
2022/01/09 12:06:10;;;;;;;12.93;2.78;;;14.10;98.60;;;;;;5005657;28;20046;-78
2022/01/09 12:08:54;;;;;;;12.90;3.17;;;14.20;99.20;;;;;;5001013;28;20038;-75
2022/01/09 12:12:01;;;;;;;12.15;3.03;;;14.30;97.70;;;;;;4981566;28;20051;-74
2022/01/09 12:15:05;;;;;;;12.02;2.75;;;14.60;98.10;;;;;;5005569;28;20745;-73
2022/01/09 12:17:36;;;;;;;13.95;3.15;;;14.70;95.80;;;;;;5000944;28;20054;-77
2022/01/09 12:20:13;;;;;;;13.93;2.88;;;14.80;97.80;;;;;;4979810;28;20046;-75
2022/01/09 12:25:22;;;;;;;13.20;3.08;;;15.30;97.80;;;;;;4985131;28;20403;-73
2022/01/09 12:27:56;;;;;;;12.50;2.75;;;15.50;97.00;;;;;;4986662;28;20514;-74
2022/01/09 12:30:33;;;;;;;14.00;2.97;;;15.70;97.80;;;;;;5000850;28;20061;-73
2022/01/09 12:33:07;;;;;;;13.07;2.88;;;16.00;96.10;;;;;;4984993;28;20210;-78
2022/01/09 12:35:40;;;;;;;10.93;2.55;;;16.00;95.50;;;;;;4973719;28;20043;-77
2022/01/09 12:38:14;;;;;;;14.65;3.40;;;16.10;96.40;;;;;;4980071;28;20049;-74
2022/01/09 12:40:42;;;;;;;13.82;3.22;;;16.10;95.30;;;;;;4993489;28;20049;-78
2022/01/09 12:43:10;;;;;;;13.27;2.85;;;15.90;95.80;;;;;;5001857;28;20402;-78
2022/01/09 12:45:43;;;;;;;15.70;3.10;;;15.80;95.30;;;;;;5005749;28;20046;-77
2022/01/09 12:48:26;;;;;;;16.10;3.22;;;15.70;95.40;;;;;;5005542;28;20057;-77
2022/01/09 12:50:55;;;;;;;10.32;2.80;;;15.90;95.00;;;;;;5020886;28;20831;-74
2022/01/09 12:53:29;;;;;;;13.98;2.75;;;15.80;93.70;;;;;;4997215;28;20045;-73
2022/01/09 12:56:05;;;;;;;12.45;3.10;;;15.50;93.30;;;;;;5001301;28;20156;-77
2022/01/09 12:58:36;;;;;;;13.85;3.05;;;15.20;94.40;;;;;;5002657;28;20088;-73
2022/01/09 13:01:06;;;;;;;18.77;3.03;;;14.90;94.40;;;;;;5004753;28;20065;-74
2022/01/09 13:03:34;;;;;;;13.05;2.95;;;14.60;94.20;;;;;;4968544;28;20054;-74
2022/01/09 13:06:07;;;;;;;17.80;3.08;;;14.20;94.30;;;;;;4965044;28;20049;-73
2022/01/09 13:08:40;;;;;;;13.48;3.10;;;14.10;94.50;;;;;;5002748;28;20457;-74
2022/01/09 13:11:09;;;;;;;17.13;3.05;;;13.90;95.40;;;;;;4994551;28;20044;-76